sensor_id;sensor_type;location;lat;lon;timestamp;pressure;altitude;pressure_sealevel;temperature;humidity
48652;BME280;34442;52.362;-1.302;2023-04-09T00:00:44;101126.97;;;9.73;100.00
48652;BME280;34442;52.362;-1.302;2023-04-09T00:03:11;101123.56;;;9.41;100.00
48652;BME280;34442;52.362;-1.302;2023-04-09T00:05:42;101128.44;;;9.37;100.00
48652;BME280;34442;52.362;-1.302;2023-04-09T00:08:07;101127.81;;;9.35;100.00
48652;BME280;34442;52.362;-1.302;2023-04-09T00:10:33;101120.16;;;9.24;100.00
48652;BME280;34442;52.362;-1.302;2023-04-09T00:12:58;101130.25;;;9.22;100.00
48652;BME280;34442;52.362;-1.302;2023-04-09T00:15:24;101122.72;;;9.17;100.00
48652;BME280;34442;52.362;-1.302;2023-04-09T00:17:50;101116.59;;;9.09;100.00
48652;BME280;34442;52.362;-1.302;2023-04-09T00:20:16;101117.03;;;8.98;100.00
48652;BME280;34442;52.362;-1.302;2023-04-09T00:22:41;101109.47;;;9.01;100.00
48652;BME280;34442;52.362;-1.302;2023-04-09T00:25:07;101115.38;;;8.88;100.00
48652;BME280;34442;52.362;-1.302;2023-04-09T00:27:33;101108.84;;;8.91;100.00
48652;BME280;34442;52.362;-1.302;2023-04-09T00:29:58;101108.78;;;8.99;100.00
48652;BME280;34442;52.362;-1.302;2023-04-09T00:32:23;101105.56;;;9.04;100.00
48652;BME280;34442;52.362;-1.302;2023-04-09T00:34:49;101101.28;;;8.94;100.00
48652;BME280;34442;52.362;-1.302;2023-04-09T00:37:14;101096.91;;;9.39;100.00
48652;BME280;34442;52.362;-1.302;2023-04-09T00:39:40;101088.59;;;9.49;100.00
48652;BME280;34442;52.362;-1.302;2023-04-09T00:42:06;101095.38;;;9.60;100.00
48652;BME280;34442;52.362;-1.302;2023-04-09T00:44:31;101094.09;;;9.33;100.00
48652;BME280;34442;52.362;-1.302;2023-04-09T00:46:57;101090.25;;;9.12;100.00
48652;BME280;34442;52.362;-1.302;2023-04-09T00:49:24;101086.84;;;8.95;100.00
48652;BME280;34442;52.362;-1.302;2023-04-09T00:51:51;101078.31;;;8.92;100.00
48652;BME280;34442;52.362;-1.302;2023-04-09T00:54:17;101081.19;;;8.90;100.00
48652;BME280;34442;52.362;-1.302;2023-04-09T00:56:44;101077.41;;;8.85;100.00
48652;BME280;34442;52.362;-1.302;2023-04-09T00:59:10;101071.84;;;8.86;100.00
48652;BME280;34442;52.362;-1.302;2023-04-09T01:01:35;101060.56;;;8.91;100.00
48652;BME280;34442;52.362;-1.302;2023-04-09T01:04:01;101052.25;;;8.86;100.00
48652;BME280;34442;52.362;-1.302;2023-04-09T01:06:41;101051.91;;;8.89;100.00
48652;BME280;34442;52.362;-1.302;2023-04-09T01:14:34;101057.41;;;8.87;100.00
48652;BME280;34442;52.362;-1.302;2023-04-09T01:17:11;101053.56;;;9.28;100.00
48652;BME280;34442;52.362;-1.302;2023-04-09T01:19:59;101051.44;;;9.00;100.00
48652;BME280;34442;52.362;-1.302;2023-04-09T01:22:46;101041.22;;;8.81;100.00
48652;BME280;34442;52.362;-1.302;2023-04-09T01:25:27;101045.34;;;8.68;100.00
48652;BME280;34442;52.362;-1.302;2023-04-09T01:30:37;101052.13;;;8.56;100.00
48652;BME280;34442;52.362;-1.302;2023-04-09T01:33:04;101046.13;;;8.46;100.00
48652;BME280;34442;52.362;-1.302;2023-04-09T01:35:30;101043.94;;;8.50;100.00
48652;BME280;34442;52.362;-1.302;2023-04-09T01:37:56;101041.44;;;8.48;100.00
48652;BME280;34442;52.362;-1.302;2023-04-09T01:40:23;101047.63;;;8.49;100.00
48652;BME280;34442;52.362;-1.302;2023-04-09T01:42:49;101041.25;;;8.50;100.00
48652;BME280;34442;52.362;-1.302;2023-04-09T01:45:15;101043.63;;;8.44;100.00
48652;BME280;34442;52.362;-1.302;2023-04-09T01:47:41;101047.34;;;8.43;100.00
48652;BME280;34442;52.362;-1.302;2023-04-09T01:50:07;101045.97;;;8.48;100.00
48652;BME280;34442;52.362;-1.302;2023-04-09T01:52:33;101044.28;;;8.47;100.00
48652;BME280;34442;52.362;-1.302;2023-04-09T01:54:58;101045.78;;;8.49;100.00
48652;BME280;34442;52.362;-1.302;2023-04-09T01:57:24;101042.88;;;8.59;100.00
48652;BME280;34442;52.362;-1.302;2023-04-09T01:59:49;101048.91;;;8.61;100.00
48652;BME280;34442;52.362;-1.302;2023-04-09T02:02:17;101042.22;;;8.57;100.00
48652;BME280;34442;52.362;-1.302;2023-04-09T02:04:50;101041.91;;;8.52;100.00
48652;BME280;34442;52.362;-1.302;2023-04-09T02:09:52;101042.22;;;8.57;100.00
48652;BME280;34442;52.362;-1.302;2023-04-09T02:12:18;101042.44;;;8.47;100.00
48652;BME280;34442;52.362;-1.302;2023-04-09T02:14:45;101047.34;;;8.43;100.00
48652;BME280;34442;52.362;-1.302;2023-04-09T02:17:11;101045.66;;;8.34;100.00
48652;BME280;34442;52.362;-1.302;2023-04-09T02:19:42;101044.50;;;8.37;100.00
48652;BME280;34442;52.362;-1.302;2023-04-09T02:22:09;101036.16;;;8.32;100.00
48652;BME280;34442;52.362;-1.302;2023-04-09T02:24:35;101036.50;;;8.29;100.00
48652;BME280;34442;52.362;-1.302;2023-04-09T02:27:01;101038.88;;;8.24;100.00
48652;BME280;34442;52.362;-1.302;2023-04-09T02:29:26;101040.72;;;8.23;100.00
48652;BME280;34442;52.362;-1.302;2023-04-09T02:31:52;101036.72;;;8.19;100.00
48652;BME280;34442;52.362;-1.302;2023-04-09T02:34:18;101038.53;;;8.18;100.00
48652;BME280;34442;52.362;-1.302;2023-04-09T02:36:44;101039.88;;;8.14;100.00
48652;BME280;34442;52.362;-1.302;2023-04-09T02:39:09;101034.41;;;8.08;100.00
48652;BME280;34442;52.362;-1.302;2023-04-09T02:41:35;101028.75;;;8.03;100.00
48652;BME280;34442;52.362;-1.302;2023-04-09T02:44:00;101035.28;;;8.00;100.00
48652;BME280;34442;52.362;-1.302;2023-04-09T02:46:26;101033.44;;;8.01;100.00
48652;BME280;34442;52.362;-1.302;2023-04-09T02:48:51;101031.78;;;7.91;100.00
48652;BME280;34442;52.362;-1.302;2023-04-09T02:51:16;101028.63;;;7.88;100.00
48652;BME280;34442;52.362;-1.302;2023-04-09T02:53:42;101033.16;;;7.87;100.00
48652;BME280;34442;52.362;-1.302;2023-04-09T02:56:09;101019.75;;;7.95;100.00
48652;BME280;34442;52.362;-1.302;2023-04-09T02:58:35;101028.44;;;7.89;100.00
48652;BME280;34442;52.362;-1.302;2023-04-09T03:01:00;101024.44;;;7.85;100.00
48652;BME280;34442;52.362;-1.302;2023-04-09T03:03:26;101019.44;;;7.90;100.00
48652;BME280;34442;52.362;-1.302;2023-04-09T03:05:51;101027.81;;;7.87;100.00
48652;BME280;34442;52.362;-1.302;2023-04-09T03:08:17;101033.28;;;7.94;100.00
48652;BME280;34442;52.362;-1.302;2023-04-09T03:10:42;101029.81;;;7.85;100.00
48652;BME280;34442;52.362;-1.302;2023-04-09T03:13:07;101035.31;;;7.92;100.00
48652;BME280;34442;52.362;-1.302;2023-04-09T03:15:33;101032.44;;;7.93;100.00
48652;BME280;34442;52.362;-1.302;2023-04-09T03:17:58;101029.47;;;7.88;100.00
48652;BME280;34442;52.362;-1.302;2023-04-09T03:20:24;101029.78;;;7.93;100.00
48652;BME280;34442;52.362;-1.302;2023-04-09T03:22:49;101038.72;;;8.17;100.00
48652;BME280;34442;52.362;-1.302;2023-04-09T03:25:15;101037.06;;;8.47;100.00
48652;BME280;34442;52.362;-1.302;2023-04-09T03:27:41;101028.94;;;8.32;100.00
48652;BME280;34442;52.362;-1.302;2023-04-09T03:30:07;101032.25;;;8.42;100.00
48652;BME280;34442;52.362;-1.302;2023-04-09T03:32:33;101024.22;;;8.34;100.00
48652;BME280;34442;52.362;-1.302;2023-04-09T03:34:58;101025.44;;;8.32;100.00
48652;BME280;34442;52.362;-1.302;2023-04-09T03:37:23;101035.31;;;8.39;100.00
48652;BME280;34442;52.362;-1.302;2023-04-09T03:39:49;101036.78;;;8.42;100.00
48652;BME280;34442;52.362;-1.302;2023-04-09T03:42:14;101039.44;;;8.42;100.00
48652;BME280;34442;52.362;-1.302;2023-04-09T03:44:40;101033.84;;;8.52;100.00
48652;BME280;34442;52.362;-1.302;2023-04-09T03:47:06;101029.91;;;8.48;100.00
48652;BME280;34442;52.362;-1.302;2023-04-09T03:49:34;101029.03;;;8.47;100.00
48652;BME280;34442;52.362;-1.302;2023-04-09T03:51:59;101030.72;;;8.48;100.00
48652;BME280;34442;52.362;-1.302;2023-04-09T03:54:28;101026.34;;;8.47;100.00
48652;BME280;34442;52.362;-1.302;2023-04-09T03:56:54;101025.19;;;8.50;100.00
48652;BME280;34442;52.362;-1.302;2023-04-09T03:59:20;101015.09;;;8.52;100.00
48652;BME280;34442;52.362;-1.302;2023-04-09T04:01:45;101019.81;;;8.50;100.00
48652;BME280;34442;52.362;-1.302;2023-04-09T04:04:12;101012.84;;;8.40;100.00
48652;BME280;34442;52.362;-1.302;2023-04-09T04:06:37;101017.00;;;8.43;100.00
48652;BME280;34442;52.362;-1.302;2023-04-09T04:09:03;101004.47;;;8.35;100.00
48652;BME280;34442;52.362;-1.302;2023-04-09T04:11:28;101006.84;;;8.30;100.00
48652;BME280;34442;52.362;-1.302;2023-04-09T04:13:54;101001.72;;;8.20;100.00
48652;BME280;34442;52.362;-1.302;2023-04-09T04:16:20;100998.25;;;8.35;100.00
48652;BME280;34442;52.362;-1.302;2023-04-09T04:18:46;101007.97;;;8.44;100.00
48652;BME280;34442;52.362;-1.302;2023-04-09T04:21:15;100998.09;;;8.44;100.00
48652;BME280;34442;52.362;-1.302;2023-04-09T04:23:41;100993.41;;;8.38;100.00
48652;BME280;34442;52.362;-1.302;2023-04-09T04:26:07;100985.72;;;8.35;100.00
48652;BME280;34442;52.362;-1.302;2023-04-09T04:28:35;100979.75;;;8.25;100.00
48652;BME280;34442;52.362;-1.302;2023-04-09T04:31:00;100979.88;;;8.32;100.00
48652;BME280;34442;52.362;-1.302;2023-04-09T04:33:26;100984.41;;;8.31;100.00
48652;BME280;34442;52.362;-1.302;2023-04-09T04:35:51;100972.53;;;8.26;100.00
48652;BME280;34442;52.362;-1.302;2023-04-09T04:38:17;100955.78;;;8.32;100.00
48652;BME280;34442;52.362;-1.302;2023-04-09T04:40:42;100967.09;;;8.19;100.00
48652;BME280;34442;52.362;-1.302;2023-04-09T04:43:08;100965.53;;;8.25;100.00
48652;BME280;34442;52.362;-1.302;2023-04-09T04:45:33;100960.66;;;8.28;100.00
48652;BME280;34442;52.362;-1.302;2023-04-09T04:48:01;100957.94;;;8.05;100.00
48652;BME280;34442;52.362;-1.302;2023-04-09T04:50:26;100954.19;;;8.14;100.00
48652;BME280;34442;52.362;-1.302;2023-04-09T04:52:52;100954.38;;;8.13;100.00
48652;BME280;34442;52.362;-1.302;2023-04-09T04:55:17;100959.47;;;8.00;100.00
48652;BME280;34442;52.362;-1.302;2023-04-09T04:57:43;100952.16;;;7.85;100.00
48652;BME280;34442;52.362;-1.302;2023-04-09T05:00:08;100947.19;;;7.82;100.00
48652;BME280;34442;52.362;-1.302;2023-04-09T05:02:34;100947.91;;;7.68;100.00
48652;BME280;34442;52.362;-1.302;2023-04-09T05:04:59;100941.53;;;7.69;100.00
48652;BME280;34442;52.362;-1.302;2023-04-09T05:07:25;100941.22;;;7.64;100.00
48652;BME280;34442;52.362;-1.302;2023-04-09T05:09:50;100940.47;;;7.47;100.00
48652;BME280;34442;52.362;-1.302;2023-04-09T05:12:16;100938.09;;;7.52;100.00
48652;BME280;34442;52.362;-1.302;2023-04-09T05:14:46;100951.66;;;7.51;100.00
48652;BME280;34442;52.362;-1.302;2023-04-09T05:17:11;100947.09;;;7.59;100.00
48652;BME280;34442;52.362;-1.302;2023-04-09T05:19:37;100945.94;;;7.62;100.00
48652;BME280;34442;52.362;-1.302;2023-04-09T05:22:02;100957.28;;;7.64;100.00
48652;BME280;34442;52.362;-1.302;2023-04-09T05:24:27;100953.25;;;7.68;100.00
48652;BME280;34442;52.362;-1.302;2023-04-09T05:26:53;100959.59;;;7.75;100.00
48652;BME280;34442;52.362;-1.302;2023-04-09T05:29:18;100957.53;;;7.85;100.00
48652;BME280;34442;52.362;-1.302;2023-04-09T05:31:43;100960.88;;;7.87;100.00
48652;BME280;34442;52.362;-1.302;2023-04-09T05:34:09;100954.84;;;7.85;100.00
48652;BME280;34442;52.362;-1.302;2023-04-09T05:36:34;100954.25;;;7.75;100.00
48652;BME280;34442;52.362;-1.302;2023-04-09T05:39:00;100956.94;;;7.67;100.00
48652;BME280;34442;52.362;-1.302;2023-04-09T05:41:25;100957.09;;;7.74;100.00
48652;BME280;34442;52.362;-1.302;2023-04-09T05:43:50;100954.47;;;7.65;100.00
48652;BME280;34442;52.362;-1.302;2023-04-09T05:46:16;100938.91;;;7.61;100.00
48652;BME280;34442;52.362;-1.302;2023-04-09T05:48:41;100953.81;;;7.55;100.00
48652;BME280;34442;52.362;-1.302;2023-04-09T05:51:07;100953.97;;;7.62;100.00
48652;BME280;34442;52.362;-1.302;2023-04-09T05:53:33;100946.59;;;7.64;100.00
48652;BME280;34442;52.362;-1.302;2023-04-09T05:55:59;100940.78;;;7.52;100.00
48652;BME280;34442;52.362;-1.302;2023-04-09T05:58:24;100935.41;;;7.60;100.00
48652;BME280;34442;52.362;-1.302;2023-04-09T06:00:50;100938.59;;;7.56;100.00
48652;BME280;34442;52.362;-1.302;2023-04-09T06:03:16;100934.41;;;7.61;100.00
48652;BME280;34442;52.362;-1.302;2023-04-09T06:05:44;100928.34;;;7.67;100.00
48652;BME280;34442;52.362;-1.302;2023-04-09T06:08:09;100929.50;;;7.65;100.00
48652;BME280;34442;52.362;-1.302;2023-04-09T06:10:35;100924.19;;;7.57;100.00
48652;BME280;34442;52.362;-1.302;2023-04-09T06:13:00;100930.03;;;7.60;100.00
48652;BME280;34442;52.362;-1.302;2023-04-09T06:15:26;100925.53;;;7.61;100.00
48652;BME280;34442;52.362;-1.302;2023-04-09T06:17:52;100926.69;;;7.66;100.00
48652;BME280;34442;52.362;-1.302;2023-04-09T06:20:17;100920.66;;;7.64;100.00
48652;BME280;34442;52.362;-1.302;2023-04-09T06:22:43;100916.63;;;7.68;100.00
48652;BME280;34442;52.362;-1.302;2023-04-09T06:25:08;100922.78;;;7.77;100.00
48652;BME280;34442;52.362;-1.302;2023-04-09T06:27:34;100920.09;;;7.77;100.00
48652;BME280;34442;52.362;-1.302;2023-04-09T06:29:59;100915.38;;;7.87;100.00
48652;BME280;34442;52.362;-1.302;2023-04-09T06:32:25;100918.06;;;7.87;100.00
48652;BME280;34442;52.362;-1.302;2023-04-09T06:34:50;100913.19;;;7.91;100.00
48652;BME280;34442;52.362;-1.302;2023-04-09T06:37:16;100898.28;;;7.88;100.00
48652;BME280;34442;52.362;-1.302;2023-04-09T06:39:41;100904.66;;;7.87;100.00
48652;BME280;34442;52.362;-1.302;2023-04-09T06:42:07;100904.00;;;7.85;100.00
48652;BME280;34442;52.362;-1.302;2023-04-09T06:44:34;100903.84;;;7.87;100.00
48652;BME280;34442;52.362;-1.302;2023-04-09T06:46:59;100897.13;;;7.91;100.00
48652;BME280;34442;52.362;-1.302;2023-04-09T06:49:27;100899.56;;;8.01;100.00
48652;BME280;34442;52.362;-1.302;2023-04-09T06:51:53;100910.31;;;7.92;100.00
48652;BME280;34442;52.362;-1.302;2023-04-09T06:54:19;100908.66;;;8.14;100.00
48652;BME280;34442;52.362;-1.302;2023-04-09T06:56:44;100906.41;;;8.26;100.00
48652;BME280;34442;52.362;-1.302;2023-04-09T06:59:10;100910.56;;;8.37;100.00
48652;BME280;34442;52.362;-1.302;2023-04-09T07:01:36;100914.78;;;8.31;100.00
48652;BME280;34442;52.362;-1.302;2023-04-09T07:04:02;100918.41;;;8.38;100.00
48652;BME280;34442;52.362;-1.302;2023-04-09T07:06:28;100913.25;;;8.37;100.00
48652;BME280;34442;52.362;-1.302;2023-04-09T07:08:53;100910.38;;;8.61;100.00
48652;BME280;34442;52.362;-1.302;2023-04-09T07:11:18;100915.03;;;8.82;100.00
48652;BME280;34442;52.362;-1.302;2023-04-09T07:13:44;100913.31;;;8.89;100.00
48652;BME280;34442;52.362;-1.302;2023-04-09T07:16:09;100915.59;;;8.78;100.00
48652;BME280;34442;52.362;-1.302;2023-04-09T07:18:35;100910.50;;;8.83;100.00
48652;BME280;34442;52.362;-1.302;2023-04-09T07:21:00;100918.81;;;8.88;100.00
48652;BME280;34442;52.362;-1.302;2023-04-09T07:23:26;100917.00;;;9.03;100.00
48652;BME280;34442;52.362;-1.302;2023-04-09T07:25:51;100923.03;;;9.20;100.00
48652;BME280;34442;52.362;-1.302;2023-04-09T07:28:16;100926.53;;;9.20;100.00
48652;BME280;34442;52.362;-1.302;2023-04-09T07:30:44;100916.72;;;9.13;100.00
48652;BME280;34442;52.362;-1.302;2023-04-09T07:33:11;100913.31;;;9.19;100.00
48652;BME280;34442;52.362;-1.302;2023-04-09T07:35:39;100906.22;;;9.26;100.00
48652;BME280;34442;52.362;-1.302;2023-04-09T07:38:04;100900.47;;;9.14;100.00
48652;BME280;34442;52.362;-1.302;2023-04-09T07:40:30;100896.81;;;8.92;100.00
48652;BME280;34442;52.362;-1.302;2023-04-09T07:42:56;100896.13;;;9.13;100.00
48652;BME280;34442;52.362;-1.302;2023-04-09T07:45:22;100895.09;;;9.14;100.00
48652;BME280;34442;52.362;-1.302;2023-04-09T07:47:47;100899.16;;;9.10;100.00
48652;BME280;34442;52.362;-1.302;2023-04-09T07:50:13;100902.50;;;9.12;100.00
48652;BME280;34442;52.362;-1.302;2023-04-09T07:52:38;100901.66;;;9.12;100.00
48652;BME280;34442;52.362;-1.302;2023-04-09T07:55:04;100887.31;;;8.90;100.00
48652;BME280;34442;52.362;-1.302;2023-04-09T07:57:30;100889.84;;;9.06;100.00
48652;BME280;34442;52.362;-1.302;2023-04-09T07:59:57;100886.38;;;9.42;100.00
48652;BME280;34442;52.362;-1.302;2023-04-09T08:02:22;100897.47;;;9.54;100.00
48652;BME280;34442;52.362;-1.302;2023-04-09T08:04:51;100894.69;;;9.62;100.00
48652;BME280;34442;52.362;-1.302;2023-04-09T08:07:16;100888.22;;;9.71;100.00
48652;BME280;34442;52.362;-1.302;2023-04-09T08:09:41;100883.94;;;9.77;100.00
48652;BME280;34442;52.362;-1.302;2023-04-09T08:12:07;100889.38;;;9.83;100.00
48652;BME280;34442;52.362;-1.302;2023-04-09T08:14:32;100887.44;;;9.92;100.00
48652;BME280;34442;52.362;-1.302;2023-04-09T08:16:58;100880.25;;;9.99;100.00
48652;BME280;34442;52.362;-1.302;2023-04-09T08:19:24;100886.63;;;10.13;100.00
48652;BME280;34442;52.362;-1.302;2023-04-09T08:21:49;100903.09;;;10.10;100.00
48652;BME280;34442;52.362;-1.302;2023-04-09T08:24:14;100903.91;;;10.47;100.00
48652;BME280;34442;52.362;-1.302;2023-04-09T08:26:41;100895.03;;;10.46;100.00
48652;BME280;34442;52.362;-1.302;2023-04-09T08:29:08;100894.88;;;10.54;100.00
48652;BME280;34442;52.362;-1.302;2023-04-09T08:31:34;100897.00;;;10.59;100.00
48652;BME280;34442;52.362;-1.302;2023-04-09T08:34:00;100903.06;;;10.67;100.00
48652;BME280;34442;52.362;-1.302;2023-04-09T08:36:25;100889.16;;;10.64;100.00
48652;BME280;34442;52.362;-1.302;2023-04-09T08:38:51;100900.81;;;10.71;100.00
48652;BME280;34442;52.362;-1.302;2023-04-09T08:41:23;100897.78;;;10.81;100.00
48652;BME280;34442;52.362;-1.302;2023-04-09T08:43:50;100903.50;;;10.99;100.00
48652;BME280;34442;52.362;-1.302;2023-04-09T08:46:18;100894.53;;;11.20;100.00
48652;BME280;34442;52.362;-1.302;2023-04-09T08:48:44;100892.13;;;11.32;100.00
48652;BME280;34442;52.362;-1.302;2023-04-09T08:51:19;100884.38;;;11.22;100.00
48652;BME280;34442;52.362;-1.302;2023-04-09T08:53:46;100883.94;;;11.12;100.00
48652;BME280;34442;52.362;-1.302;2023-04-09T08:56:13;100881.84;;;11.14;100.00
48652;BME280;34442;52.362;-1.302;2023-04-09T08:58:42;100889.97;;;11.21;100.00
48652;BME280;34442;52.362;-1.302;2023-04-09T09:04:07;100886.41;;;11.48;100.00
48652;BME280;34442;52.362;-1.302;2023-04-09T09:06:37;100878.03;;;11.30;100.00
48652;BME280;34442;52.362;-1.302;2023-04-09T09:09:10;100878.81;;;11.72;100.00
48652;BME280;34442;52.362;-1.302;2023-04-09T09:11:43;100883.59;;;11.70;100.00
48652;BME280;34442;52.362;-1.302;2023-04-09T09:14:14;100890.03;;;11.75;100.00
48652;BME280;34442;52.362;-1.302;2023-04-09T09:17:03;100890.16;;;12.02;100.00
48652;BME280;34442;52.362;-1.302;2023-04-09T09:19:31;100891.13;;;11.87;100.00
48652;BME280;34442;52.362;-1.302;2023-04-09T09:22:02;100877.28;;;12.04;100.00
48652;BME280;34442;52.362;-1.302;2023-04-09T09:24:29;100872.56;;;12.32;100.00
48652;BME280;34442;52.362;-1.302;2023-04-09T09:26:56;100868.63;;;12.28;100.00
48652;BME280;34442;52.362;-1.302;2023-04-09T09:29:23;100871.72;;;12.12;100.00
48652;BME280;34442;52.362;-1.302;2023-04-09T09:31:52;100869.59;;;12.01;100.00
48652;BME280;34442;52.362;-1.302;2023-04-09T09:34:20;100859.06;;;12.26;100.00
48652;BME280;34442;52.362;-1.302;2023-04-09T09:36:46;100853.50;;;12.27;100.00
48652;BME280;34442;52.362;-1.302;2023-04-09T09:39:13;100852.63;;;12.13;100.00
48652;BME280;34442;52.362;-1.302;2023-04-09T09:41:39;100845.00;;;12.24;100.00
48652;BME280;34442;52.362;-1.302;2023-04-09T09:44:09;100841.69;;;12.35;100.00
48652;BME280;34442;52.362;-1.302;2023-04-09T09:46:37;100837.53;;;12.19;100.00
48652;BME280;34442;52.362;-1.302;2023-04-09T09:49:07;100831.94;;;12.40;100.00
48652;BME280;34442;52.362;-1.302;2023-04-09T09:51:36;100830.06;;;12.34;100.00
48652;BME280;34442;52.362;-1.302;2023-04-09T09:54:06;100829.84;;;12.42;100.00
48652;BME280;34442;52.362;-1.302;2023-04-09T09:56:37;100833.78;;;12.53;100.00
48652;BME280;34442;52.362;-1.302;2023-04-09T09:59:11;100829.41;;;12.79;100.00
48652;BME280;34442;52.362;-1.302;2023-04-09T10:01:37;100836.03;;;12.83;100.00
48652;BME280;34442;52.362;-1.302;2023-04-09T10:04:05;100833.97;;;12.78;100.00
48652;BME280;34442;52.362;-1.302;2023-04-09T10:06:34;100832.28;;;12.97;100.00
48652;BME280;34442;52.362;-1.302;2023-04-09T10:09:03;100835.53;;;13.32;100.00
48652;BME280;34442;52.362;-1.302;2023-04-09T10:11:32;100830.50;;;13.43;100.00
48652;BME280;34442;52.362;-1.302;2023-04-09T10:13:59;100830.09;;;13.39;100.00
48652;BME280;34442;52.362;-1.302;2023-04-09T10:16:26;100824.22;;;13.55;100.00
48652;BME280;34442;52.362;-1.302;2023-04-09T10:18:56;100828.13;;;13.66;100.00
48652;BME280;34442;52.362;-1.302;2023-04-09T10:21:41;100821.84;;;13.65;100.00
48652;BME280;34442;52.362;-1.302;2023-04-09T10:24:09;100814.81;;;13.64;100.00
48652;BME280;34442;52.362;-1.302;2023-04-09T10:26:39;100816.59;;;13.39;100.00
48652;BME280;34442;52.362;-1.302;2023-04-09T10:29:06;100799.91;;;13.55;100.00
48652;BME280;34442;52.362;-1.302;2023-04-09T10:34:14;100804.00;;;13.13;100.00
48652;BME280;34442;52.362;-1.302;2023-04-09T10:36:45;100793.16;;;13.20;100.00
48652;BME280;34442;52.362;-1.302;2023-04-09T10:39:13;100793.88;;;13.53;100.00
48652;BME280;34442;52.362;-1.302;2023-04-09T10:41:40;100797.94;;;14.07;100.00
48652;BME280;34442;52.362;-1.302;2023-04-09T10:44:26;100785.66;;;14.05;100.00
48652;BME280;34442;52.362;-1.302;2023-04-09T10:46:53;100781.13;;;13.99;100.00
48652;BME280;34442;52.362;-1.302;2023-04-09T10:49:20;100782.22;;;13.59;100.00
48652;BME280;34442;52.362;-1.302;2023-04-09T10:59:32;100757.81;;;14.48;100.00
48652;BME280;34442;52.362;-1.302;2023-04-09T11:01:57;100755.69;;;14.31;100.00
48652;BME280;34442;52.362;-1.302;2023-04-09T11:04:33;100756.16;;;14.03;100.00
48652;BME280;34442;52.362;-1.302;2023-04-09T11:07:04;100754.94;;;14.24;100.00
48652;BME280;34442;52.362;-1.302;2023-04-09T11:09:34;100746.06;;;14.35;100.00
48652;BME280;34442;52.362;-1.302;2023-04-09T11:12:00;100735.09;;;14.30;100.00
48652;BME280;34442;52.362;-1.302;2023-04-09T11:14:26;100739.16;;;14.39;100.00
48652;BME280;34442;52.362;-1.302;2023-04-09T11:16:54;100734.59;;;14.40;100.00
48652;BME280;34442;52.362;-1.302;2023-04-09T11:19:20;100727.06;;;14.24;100.00
48652;BME280;34442;52.362;-1.302;2023-04-09T11:21:46;100724.63;;;14.40;100.00
48652;BME280;34442;52.362;-1.302;2023-04-09T11:24:12;100719.41;;;14.82;100.00
48652;BME280;34442;52.362;-1.302;2023-04-09T11:26:38;100715.41;;;14.85;100.00
48652;BME280;34442;52.362;-1.302;2023-04-09T11:29:06;100710.81;;;14.67;100.00
48652;BME280;34442;52.362;-1.302;2023-04-09T11:31:33;100708.16;;;14.97;100.00
48652;BME280;34442;52.362;-1.302;2023-04-09T11:33:59;100705.72;;;14.77;100.00
48652;BME280;34442;52.362;-1.302;2023-04-09T11:36:25;100698.72;;;14.88;100.00
48652;BME280;34442;52.362;-1.302;2023-04-09T11:38:52;100693.09;;;15.20;100.00
48652;BME280;34442;52.362;-1.302;2023-04-09T11:41:32;100691.84;;;15.34;99.87
48652;BME280;34442;52.362;-1.302;2023-04-09T11:43:57;100698.47;;;15.08;100.00
48652;BME280;34442;52.362;-1.302;2023-04-09T11:46:23;100692.41;;;15.24;100.00
48652;BME280;34442;52.362;-1.302;2023-04-09T11:48:51;100689.63;;;15.31;100.00
48652;BME280;34442;52.362;-1.302;2023-04-09T11:51:17;100680.84;;;15.17;100.00
48652;BME280;34442;52.362;-1.302;2023-04-09T11:53:43;100673.53;;;15.48;100.00
48652;BME280;34442;52.362;-1.302;2023-04-09T11:56:09;100677.59;;;15.27;100.00
48652;BME280;34442;52.362;-1.302;2023-04-09T11:58:34;100678.78;;;15.43;100.00
48652;BME280;34442;52.362;-1.302;2023-04-09T12:01:00;100679.00;;;15.29;100.00
48652;BME280;34442;52.362;-1.302;2023-04-09T12:03:29;100672.47;;;15.49;100.00
48652;BME280;34442;52.362;-1.302;2023-04-09T12:05:58;100664.66;;;15.41;100.00
48652;BME280;34442;52.362;-1.302;2023-04-09T12:08:26;100661.88;;;15.47;100.00
48652;BME280;34442;52.362;-1.302;2023-04-09T12:10:51;100654.53;;;15.36;100.00
48652;BME280;34442;52.362;-1.302;2023-04-09T12:13:18;100663.69;;;15.23;100.00
48652;BME280;34442;52.362;-1.302;2023-04-09T12:15:43;100660.03;;;15.29;100.00
48652;BME280;34442;52.362;-1.302;2023-04-09T12:18:11;100654.19;;;15.44;100.00
48652;BME280;34442;52.362;-1.302;2023-04-09T12:20:46;100653.22;;;15.27;97.37
48652;BME280;34442;52.362;-1.302;2023-04-09T12:23:14;100651.38;;;15.39;100.00
48652;BME280;34442;52.362;-1.302;2023-04-09T12:25:42;100640.63;;;15.32;100.00
48652;BME280;34442;52.362;-1.302;2023-04-09T12:28:09;100645.25;;;15.44;100.00
48652;BME280;34442;52.362;-1.302;2023-04-09T12:30:35;100645.75;;;15.22;100.00
48652;BME280;34442;52.362;-1.302;2023-04-09T12:33:02;100647.28;;;15.18;100.00
48652;BME280;34442;52.362;-1.302;2023-04-09T12:35:28;100640.59;;;15.21;100.00
48652;BME280;34442;52.362;-1.302;2023-04-09T12:37:54;100640.25;;;15.29;100.00
48652;BME280;34442;52.362;-1.302;2023-04-09T12:40:20;100625.56;;;15.36;100.00
48652;BME280;34442;52.362;-1.302;2023-04-09T12:42:48;100625.09;;;15.39;100.00
48652;BME280;34442;52.362;-1.302;2023-04-09T12:45:16;100624.28;;;15.39;100.00
48652;BME280;34442;52.362;-1.302;2023-04-09T12:47:42;100621.44;;;15.46;100.00
48652;BME280;34442;52.362;-1.302;2023-04-09T12:50:09;100613.13;;;15.71;100.00
48652;BME280;34442;52.362;-1.302;2023-04-09T12:52:35;100609.97;;;15.85;99.59
48652;BME280;34442;52.362;-1.302;2023-04-09T12:55:02;100605.22;;;16.04;99.79
48652;BME280;34442;52.362;-1.302;2023-04-09T12:57:28;100608.09;;;15.98;99.10